Time;durP1;ratioP1;P1;durP2;ratioP2;P2;SDS_P1;SDS_P2;PMS_P1;PMS_P2;Temp;Humidity;BMP_temperature;BMP_pressure;BME280_temperature;BME280_humidity;BME280_pressure;Samples;Min_cycle;Max_cycle;Signal;HPM_P1;HPM_P2
2022/10/25 00:00:38;;;;;;;41.63;29.88;;;;;;;;;;5052249;28;20028;-56
2022/10/25 00:03:04;;;;;;;50.85;31.10;;;;;;;;;;5048351;28;20041;-58
2022/10/25 00:05:30;;;;;;;45.30;30.88;;;;;;;;;;5032261;28;20464;-58
2022/10/25 00:07:56;;;;;;;51.03;30.67;;;;;;;;;;5036455;28;20029;-57
2022/10/25 00:10:22;;;;;;;43.80;29.42;;;;;;;;;;5051545;28;20094;-57
2022/10/25 00:12:49;;;;;;;53.03;32.83;;;;;;;;;;5050608;28;20064;-56
2022/10/25 00:15:15;;;;;;;50.00;33.53;;;;;;;;;;5081944;22;20072;-74
2022/10/25 00:17:41;;;;;;;43.90;29.73;;;;;;;;;;5071741;28;20077;-73
2022/10/25 00:20:08;;;;;;;51.45;33.25;;;;;;;;;;5065369;28;20047;-73
2022/10/25 00:22:34;;;;;;;56.88;33.38;;;;;;;;;;5055012;28;20063;-73
2022/10/25 00:25:00;;;;;;;50.00;33.70;;;;;;;;;;5059225;28;20044;-73
2022/10/25 00:27:26;;;;;;;47.17;32.80;;;;;;;;;;5092053;28;20043;-72
2022/10/25 00:29:52;;;;;;;55.53;34.47;;;;;;;;;;5082721;28;20030;-72
2022/10/25 00:32:19;;;;;;;54.22;35.85;;;;;;;;;;5071848;28;20029;-72
2022/10/25 00:34:45;;;;;;;51.55;36.10;;;;;;;;;;5070288;28;20044;-74
2022/10/25 00:37:11;;;;;;;49.92;34.20;;;;;;;;;;5070424;28;20025;-74
2022/10/25 00:39:37;;;;;;;55.00;37.03;;;;;;;;;;5070130;28;20070;-74
2022/10/25 00:42:03;;;;;;;58.35;39.35;;;;;;;;;;5080793;28;20046;-73
2022/10/25 00:44:35;;;;;;;59.95;37.33;;;;;;;;;;5091860;28;20438;-73
2022/10/25 00:47:03;;;;;;;50.95;34.85;;;;;;;;;;5090440;28;20044;-73
2022/10/25 00:49:30;;;;;;;60.88;38.35;;;;;;;;;;5090330;28;20027;-73
2022/10/25 00:51:58;;;;;;;58.63;39.30;;;;;;;;;;5091850;28;20107;-73
2022/10/25 00:54:26;;;;;;;65.13;39.03;;;;;;;;;;5091527;28;20081;-73
2022/10/25 00:56:53;;;;;;;61.65;38.35;;;18.60;84.70;;;;;;5091752;28;20024;-73
2022/10/25 00:59:21;;;;;;;58.35;35.30;;;;;;;;;;5091661;28;20588;-72
2022/10/25 01:01:47;;;;;;;60.53;36.92;;;;;;;;;;5091693;28;20035;-73
2022/10/25 01:04:15;;;;;;;67.18;37.92;;;;;;;;;;5091632;28;20028;-73
2022/10/25 01:06:42;;;;;;;54.80;36.72;;;;;;;;;;5091405;28;20024;-73
2022/10/25 01:09:08;;;;;;;;;;;;;;;;;;5091902;28;20028;-72
2022/10/25 01:11:37;;;;;;;63.67;37.85;;;;;;;;;;5091593;28;19908;-73
2022/10/25 01:14:04;;;;;;;58.17;37.83;;;;;;;;;;5090132;28;20032;-73
2022/10/25 01:16:30;;;;;;;;;;;;;;;;;;5092017;28;20557;-73
2022/10/25 01:18:56;;;;;;;;;;;;;;;;;;5078304;28;19947;-74
2022/10/25 01:21:22;;;;;;;;;;;;;;;;;;5070399;28;19947;-73
2022/10/25 01:23:48;;;;;;;;;;;;;;;;;;5071655;28;19904;-73
2022/10/25 01:26:13;;;;;;;;;;;;;;;;;;5071415;28;19935;-73
2022/10/25 01:28:39;;;;;;;;;;;;;;;;;;5071441;28;19908;-73
2022/10/25 01:31:05;;;;;;;;;;;;;;;;;;5071664;28;19911;-72
2022/10/25 01:33:31;;;;;;;;;;;;;;;;;;5084397;28;19904;-73
2022/10/25 01:35:57;;;;;;;;;;;;;;;;;;5091566;28;19908;-73
2022/10/25 01:38:23;;;;;;;;;;;;;;;;;;5082143;28;19908;-72
2022/10/25 01:40:49;;;;;;;;;;;;;;;;;;5075416;28;19916;-72
2022/10/25 01:43:15;;;;;;;;;;;;;;;;;;5090358;28;19909;-73
2022/10/25 01:45:41;;;;;;;;;;;;;;;;;;5075267;28;19904;-73
2022/10/25 01:48:06;;;;;;;;;;;;;;;;;;5075072;28;20323;-73
2022/10/25 01:50:32;;;;;;;;;;;;;;;;;;5073403;28;19912;-73
2022/10/25 01:52:58;;;;;;;;;;;;;;;;;;5073655;28;19954;-73
2022/10/25 01:55:24;;;;;;;;;;;;;;;;;;5091223;28;19907;-74
2022/10/25 01:57:50;;;;;;;;;;;;;;;;;;5074881;28;20369;-73
2022/10/25 02:00:19;;;;;;;;;;;;;;;;;;5074581;28;19969;-73
2022/10/25 02:02:45;;;;;;;;;;;;;;;;;;5093323;28;19955;-73
2022/10/25 02:05:11;;;;;;;;;;;;;;;;;;5087486;28;19944;-72
2022/10/25 02:07:36;;;;;;;;;;;;;;;;;;5073958;28;20061;-73
2022/10/25 02:10:02;;;;;;;;;;;;;;;;;;5074790;28;20368;-74
2022/10/25 02:12:28;;;;;;;;;;;;;;;;;;5075029;28;20376;-73
2022/10/25 02:14:54;;;;;;;;;;;;;;;;;;5074628;28;20349;-75
2022/10/25 02:17:20;;;;;;;;;;;;;;;;;;5080637;28;19911;-73
2022/10/25 02:19:46;;;;;;;;;;;;;;;;;;5094626;28;19908;-73
2022/10/25 02:22:12;;;;;;;;;;;;;;;;;;5094823;28;19904;-72
2022/10/25 02:24:38;;;;;;;;;;;;;;;;;;5094800;28;20261;-73
2022/10/25 02:27:04;;;;;;;;;;;;;;;;;;5094888;28;20367;-72
2022/10/25 02:29:30;;;;;;;;;;;;;;;;;;5094516;28;19925;-73
2022/10/25 02:31:56;;;;;;;;;;;;;;;;;;5094660;28;19904;-73
2022/10/25 02:34:22;;;;;;;;;;;;;;;;;;5094396;28;20391;-73
2022/10/25 02:36:48;;;;;;;;;;;;;;;;;;5094520;28;19904;-73
2022/10/25 02:39:14;;;;;;;;;;;;;;;;;;5094591;28;19904;-73
2022/10/25 02:41:40;;;;;;;;;;;;;;;;;;5094474;28;19904;-73
2022/10/25 02:44:06;;;;;;;;;;;;;;;;;;5094320;28;20288;-73
2022/10/25 02:46:32;;;;;;;;;;;;;;;;;;5094260;28;20505;-73
2022/10/25 02:48:58;;;;;;;;;;;;;;;;;;5093352;28;19991;-73
2022/10/25 02:51:23;;;;;;;;;;;;;;;;;;5082967;28;20007;-73
2022/10/25 02:53:49;;;;;;;;;;;;;;;;;;5072092;28;19909;-73
2022/10/25 02:56:15;;;;;;;;;;;;;;;;;;5073647;28;20315;-74
2022/10/25 02:58:41;;;;;;;;;;;;;;;;;;5089111;28;20016;-73
2022/10/25 03:01:07;;;;;;;;;;;;;;;;;;5073357;28;20471;-73
2022/10/25 03:03:33;;;;;;;;;;;;;;;;;;5072679;28;19922;-73
2022/10/25 03:05:59;;;;;;;;;;;;;;;;;;5073189;28;20352;-73
2022/10/25 03:08:25;;;;;;;;;;;;;;;;;;5072065;28;20030;-73
2022/10/25 03:10:51;;;;;;;;;;;;;;;;;;5073235;28;19995;-72
2022/10/25 03:13:17;;;;;;;;;;;;;;;;;;5072517;28;20003;-72
2022/10/25 03:15:43;;;;;;;;;;;;;;;;;;5071762;28;20026;-72
2022/10/25 03:18:08;;;;;;;;;;;;;;;;;;5093535;28;20375;-73
2022/10/25 03:20:34;;;;;;;;;;;;;;;;;;5075616;28;20364;-72
2022/10/25 03:23:00;;;;;;;;;;;18.60;90.40;;;;;;5088778;28;19908;-73
2022/10/25 03:25:26;;;;;;;;;;;17.70;89.40;;;;;;5072953;28;19920;-73
2022/10/25 03:27:51;;;;;;;;;;;17.70;89.50;;;;;;5073312;28;19954;-72
2022/10/25 03:30:17;;;;;;;;;;;17.70;89.90;;;;;;5072939;28;20296;-72
2022/10/25 03:32:42;;;;;;;;;;;17.70;90.00;;;;;;5072434;28;19908;-72
2022/10/25 03:35:08;;;;;;;;;;;17.70;89.60;;;;;;5073607;28;19911;-73
2022/10/25 03:37:34;;;;;;;;;;;17.80;89.70;;;;;;5072446;28;20372;-74
2022/10/25 03:39:59;;;;;;;;;;;17.90;89.30;;;;;;5072318;28;19908;-73
2022/10/25 03:42:25;;;;;;;;;;;17.90;89.40;;;;;;5073004;28;19912;-73
2022/10/25 03:44:51;;;;;;;;;;;17.90;89.70;;;;;;5072146;28;19916;-73
2022/10/25 03:47:16;;;;;;;;;;;17.90;89.90;;;;;;5072425;28;20265;-73
2022/10/25 03:49:42;;;;;;;;;;;18.00;89.40;;;;;;5072469;28;19999;-74
2022/10/25 03:52:08;;;;;;;;;;;18.00;89.10;;;;;;5071305;28;19908;-71
2022/10/25 03:54:33;;;;;;;;;;;18.10;88.20;;;;;;5072726;28;19904;-72
2022/10/25 03:57:00;;;;;;;;;;;18.10;87.50;;;;;;5072770;28;19959;-72
2022/10/25 03:59:26;;;;;;;;;;;18.00;87.30;;;;;;5072261;28;19950;-71
2022/10/25 04:01:51;;;;;;;;;;;18.00;87.50;;;;;;5070018;28;19908;-72
2022/10/25 04:04:17;;;;;;;;;;;17.90;87.90;;;;;;5056260;28;19911;-72
2022/10/25 04:06:42;;;;;;;;;;;17.90;88.10;;;;;;5068182;28;19908;-72
2022/10/25 04:09:08;;;;;;;;;;;17.80;88.00;;;;;;5052578;28;19905;-72
2022/10/25 04:11:33;;;;;;;;;;;17.90;87.90;;;;;;5052677;28;19999;-72
2022/10/25 04:13:59;;;;;;;;;;;17.90;88.00;;;;;;5052370;28;19912;-72
2022/10/25 04:16:25;;;;;;;;;;;17.90;87.90;;;;;;5051020;28;20427;-72
2022/10/25 04:18:52;;;;;;;;;;;18.00;88.20;;;;;;5052443;28;19904;-73
2022/10/25 04:21:18;;;;;;;;;;;17.90;87.80;;;;;;5051311;28;20373;-72
2022/10/25 04:23:43;;;;;;;;;;;17.90;88.10;;;;;;5068140;28;20380;-72
2022/10/25 04:26:09;;;;;;;;;;;17.90;88.10;;;;;;5060120;28;19934;-73
2022/10/25 04:28:34;;;;;;;;;;;17.90;88.10;;;;;;5072112;28;19915;-72
2022/10/25 04:31:01;;;;;;;;;;;17.90;88.00;;;;;;5072442;28;19904;-72
2022/10/25 04:33:26;;;;;;;;;;;17.90;87.90;;;;;;5072563;28;19915;-71
2022/10/25 04:35:55;;;;;;;;;;;17.90;88.00;;;;;;5072292;28;19914;-72
2022/10/25 04:38:20;;;;;;;;;;;17.90;87.90;;;;;;5070918;28;19904;-72
2022/10/25 04:40:53;;;;;;;;;;;17.80;87.70;;;;;;5072397;28;19908;-72
2022/10/25 04:43:18;;;;;;;;;;;17.80;87.70;;;;;;5070833;28;19908;-72
2022/10/25 04:45:44;;;;;;;;;;;17.90;87.70;;;;;;5072208;28;20250;-72
2022/10/25 04:48:09;;;;;;;;;;;17.80;87.50;;;;;;5072049;28;20262;-72
2022/10/25 04:50:36;;;;;;;;;;;17.80;87.50;;;;;;5072182;28;19936;-72
2022/10/25 04:53:02;;;;;;;;;;;17.80;87.30;;;;;;5072216;28;19904;-72
2022/10/25 04:55:28;;;;;;;;;;;17.80;87.10;;;;;;5072203;28;19908;-73
2022/10/25 04:57:53;;;;;;;;;;;17.70;87.40;;;;;;5072033;28;20004;-73
2022/10/25 05:00:19;;;;;;;;;;;17.70;87.50;;;;;;5071957;28;19947;-72
2022/10/25 05:02:44;;;;;;;;;;;17.60;87.40;;;;;;5070793;28;19905;-72
2022/10/25 05:05:10;;;;;;;;;;;17.60;87.70;;;;;;5070695;28;19908;-72
2022/10/25 05:07:35;;;;;;;;;;;17.60;87.90;;;;;;5071972;28;19912;-73
2022/10/25 05:10:01;;;;;;;;;;;17.60;88.00;;;;;;5071787;28;19930;-71
2022/10/25 05:12:27;;;;;;;;;;;;;;;;;;5074436;28;20291;-72
2022/10/25 05:14:52;;;;;;;;;;;17.60;87.50;;;;;;5075683;28;20263;-72
2022/10/25 05:17:18;;;;;;;;;;;17.40;87.90;;;;;;5075984;28;20011;-72
2022/10/25 05:19:43;;;;;;;;;;;17.30;88.20;;;;;;5075734;28;20411;-72
2022/10/25 05:22:09;;;;;;;;;;;17.30;88.30;;;;;;5075849;28;19939;-71
2022/10/25 05:24:35;;;;;;;;;;;17.30;88.60;;;;;;5075807;28;19944;-71
2022/10/25 05:27:00;;;;;;;;;;;17.30;88.90;;;;;;5075657;28;19909;-72
2022/10/25 05:29:26;;;;;;;;;;;17.30;88.70;;;;;;5075420;28;19912;-72
2022/10/25 05:31:51;;;;;;;;;;;17.30;88.70;;;;;;5075720;28;19958;-72
2022/10/25 05:34:17;;;;;;;;;;;17.30;88.70;;;;;;5075526;28;20296;-72
2022/10/25 05:36:42;;;;;;;;;;;17.40;89.00;;;;;;5075616;28;19909;-71
2022/10/25 05:39:08;;;;;;;;;;;17.30;88.50;;;;;;5075478;28;19944;-72
2022/10/25 05:41:33;;;;;;;;;;;17.40;88.60;;;;;;5075453;28;19911;-72
2022/10/25 05:43:59;;;;;;;;;;;17.40;88.50;;;;;;5075210;28;19913;-72
2022/10/25 05:46:25;;;;;;;;;;;17.40;88.70;;;;;;5075216;28;19912;-72
2022/10/25 05:48:52;;;;;;;;;;;17.40;88.70;;;;;;5075269;28;19930;-73
2022/10/25 05:51:25;;;;;;;;;;;17.30;88.30;;;;;;5075378;28;19922;-71
2022/10/25 05:53:52;;;;;;;;;;;17.30;88.50;;;;;;5075205;28;19904;-73
2022/10/25 05:56:18;;;;;;;;;;;17.30;88.20;;;;;;5073851;28;20475;-72
2022/10/25 05:58:44;;;;;;;;;;;17.20;88.40;;;;;;5074948;28;20277;-72
2022/10/25 06:01:11;;;;;;;;;;;17.20;88.50;;;;;;5075184;28;19904;-72
2022/10/25 06:03:37;;;;;;;;;;;17.20;88.50;;;;;;5075093;28;19978;-72
2022/10/25 06:06:03;;;;;;;;;;;17.20;88.60;;;;;;5075052;28;20368;-71
2022/10/25 06:08:29;;;;;;;;;;;17.20;88.60;;;;;;5074800;28;19908;-54
2022/10/25 06:10:59;;;;;;;;;;;17.20;88.50;;;;;;5074888;28;19950;-55
2022/10/25 06:13:24;;;;;;;;;;;17.20;88.60;;;;;;5074949;28;19974;-51
2022/10/25 06:15:50;;;;;;;;;;;17.10;89.30;;;;;;5075170;28;20373;-52
2022/10/25 06:18:16;;;;;;;;;;;;;;;;;;5074707;28;19931;-53
2022/10/25 06:20:41;;;;;;;;;;;17.00;89.30;;;;;;5073989;28;20015;-52
2022/10/25 06:23:07;;;;;;;;;;;;;;;;;;5073685;28;20003;-52
2022/10/25 06:25:33;;;;;;;;;;;17.10;89.50;;;;;;5074542;28;19911;-54
2022/10/25 06:27:58;;;;;;;;;;;17.10;89.10;;;;;;5074966;28;20384;-52
2022/10/25 06:30:24;;;;;;;;;;;17.20;89.20;;;;;;5074547;28;19905;-53
2022/10/25 06:32:49;;;;;;;;;;;17.30;89.00;;;;;;5074602;28;20268;-54
2022/10/25 06:35:15;;;;;;;;;;;17.40;89.00;;;;;;5074505;28;20262;-52
2022/10/25 06:37:40;;;;;;;;;;;17.50;88.90;;;;;;5074571;28;20433;-55
2022/10/25 06:40:06;;;;;;;;;;;17.60;88.90;;;;;;5074274;28;20387;-56
2022/10/25 06:42:32;;;;;;;;;;;17.70;88.70;;;;;;5074404;28;19908;-51
2022/10/25 06:44:57;;;;;;;;;;;17.80;88.40;;;;;;5074293;28;19991;-57
2022/10/25 06:47:23;;;;;;;;;;;17.80;88.10;;;;;;5074214;28;19966;-54
2022/10/25 06:49:48;;;;;;;;;;;17.80;88.70;;;;;;5074194;28;19940;-54
2022/10/25 06:52:14;;;;;;;;;;;17.90;89.10;;;;;;5089851;28;20273;-51
2022/10/25 06:54:39;;;;;;;;;;;17.90;88.70;;;;;;5073986;28;19908;-54
2022/10/25 06:57:05;;;;;;;;;;;18.00;89.10;;;;;;5074109;28;19908;-51
2022/10/25 06:59:30;;;;;;;;;;;17.90;89.00;;;;;;5074030;28;19905;-52
2022/10/25 07:01:56;;;;;;;;;;;18.00;89.10;;;;;;5074128;28;19908;-54
2022/10/25 07:04:21;;;;;;;;;;;18.20;89.00;;;;;;5073940;28;19911;-55
2022/10/25 07:06:47;;;;;;;;;;;18.40;88.80;;;;;;5073141;28;20039;-52
2022/10/25 07:09:14;;;;;;;;;;;18.50;88.10;;;;;;5073556;28;19950;-69
2022/10/25 07:11:40;;;;;;;;;;;18.70;87.70;;;;;;5073837;28;19955;-68
2022/10/25 07:14:05;;;;;;;;;;;18.80;87.40;;;;;;5089185;28;19962;-69
2022/10/25 07:16:31;;;;;;;;;;;18.90;86.80;;;;;;5073653;28;19948;-69
2022/10/25 07:18:58;;;;;;;;;;;19.00;86.60;;;;;;5073471;28;19912;-68
2022/10/25 07:21:23;;;;;;;;;;;19.10;86.30;;;;;;5072902;28;19911;-68
2022/10/25 07:23:49;;;;;;;;;;;19.10;85.50;;;;;;5073381;28;19904;-69
2022/10/25 07:26:15;;;;;;;;;;;19.20;85.70;;;;;;5073457;28;19992;-69
2022/10/25 07:28:41;;;;;;;;;;;19.30;85.40;;;;;;5073194;28;19908;-69
2022/10/25 07:31:10;;;;;;;;;;;19.30;85.60;;;;;;5073594;28;19904;-69
2022/10/25 07:33:36;;;;;;;;;;;19.30;85.40;;;;;;5073248;28;19971;-69
2022/10/25 07:36:01;;;;;;;;;;;19.30;85.50;;;;;;5088678;28;19908;-69
2022/10/25 07:38:28;;;;;;;;;;;19.30;84.80;;;;;;5088450;28;20281;-69
2022/10/25 07:40:55;;;;;;;;;;;19.30;84.90;;;;;;5088818;28;19911;-69
2022/10/25 07:43:20;;;;;;;;;;;19.30;85.40;;;;;;5073140;28;19959;-70
2022/10/25 07:45:48;;;;;;;;;;;19.30;84.90;;;;;;5072998;28;19956;-69
2022/10/25 07:48:13;;;;;;;;;;;19.30;85.30;;;;;;5072859;28;19908;-69
2022/10/25 07:50:39;;;;;;;;;;;19.30;85.20;;;;;;5073013;28;19904;-69
2022/10/25 07:53:04;;;;;;;;;;;19.30;85.30;;;;;;5072756;28;19909;-70
2022/10/25 07:55:30;;;;;;;;;;;19.40;85.60;;;;;;5072814;28;19973;-68
2022/10/25 07:58:00;;;;;;;;;;;19.40;85.50;;;;;;5072863;28;20003;-69
2022/10/25 08:00:25;;;;;;;;;;;19.40;85.20;;;;;;5072977;28;19973;-69
2022/10/25 08:02:51;;;;;;;;;;;19.50;85.20;;;;;;5072778;28;20416;-70
2022/10/25 08:05:16;;;;;;;;;;;19.50;84.90;;;;;;5072350;28;20512;-69
2022/10/25 08:07:42;;;;;;;;;;;19.60;84.70;;;;;;5072539;28;20372;-64
2022/10/25 08:10:07;;;;;;;;;;;19.80;84.10;;;;;;5072508;28;20384;-64
2022/10/25 08:12:33;;;;;;;;;;;19.90;83.60;;;;;;5072710;28;20253;-64
2022/10/25 08:14:58;;;;;;;;;;;20.00;83.20;;;;;;5088045;28;19948;-64
2022/10/25 08:17:24;;;;;;;;;;;20.20;82.50;;;;;;5072627;28;19905;-64
2022/10/25 08:19:49;;;;;;;;;;;20.20;81.60;;;;;;5072480;28;19905;-64
2022/10/25 08:22:15;;;;;;;;;;;20.30;81.20;;;;;;5072390;28;19904;-64
2022/10/25 08:24:40;;;;;;;;;;;20.40;81.20;;;;;;5072443;28;19904;-64
2022/10/25 08:27:06;;;;;;;;;;;20.40;80.70;;;;;;5072402;28;19912;-65
2022/10/25 08:29:32;;;;;;;;;;;20.30;81.40;;;;;;5072366;28;19940;-59
2022/10/25 08:31:58;;;;;;;;;;;20.30;81.30;;;;;;5072559;28;20006;-59
2022/10/25 08:34:23;;;;;;;;;;;20.30;82.00;;;;;;5072395;28;20295;-59
2022/10/25 08:36:49;;;;;;;;;;;20.30;81.80;;;;;;5072204;28;19904;-58
2022/10/25 08:39:16;;;;;;;;;;;20.40;81.60;;;;;;5070881;28;20352;-59
2022/10/25 08:41:46;;;;;;;;;;;20.50;81.60;;;;;;5072414;28;20448;-57
2022/10/25 08:44:20;;;;;;;;;;;20.60;81.80;;;;;;5072276;28;19904;-59
2022/10/25 08:47:04;;;;;;;;;;;20.70;81.70;;;;;;5071672;28;19905;-59
2022/10/25 08:49:42;;;;;;;;;;;20.80;81.80;;;;;;5087629;28;20276;-58
2022/10/25 08:52:14;;;;;;;;;;;21.00;81.20;;;;;;5072230;28;19904;-59
2022/10/25 08:54:42;;;;;;;;;;;21.10;81.20;;;;;;5087647;28;20011;-58
2022/10/25 08:57:07;;;;;;;;;;;21.30;80.90;;;;;;5072123;28;19904;-59
2022/10/25 08:59:36;;;;;;;;;;;21.30;80.30;;;;;;5071958;28;19904;-57
2022/10/25 09:02:03;;;;;;;;;;;21.40;80.30;;;;;;5072291;28;19911;-56
2022/10/25 09:04:30;;;;;;;;;;;21.40;80.30;;;;;;5070705;28;19952;-58
2022/10/25 09:07:07;;;;;;;;;;;21.50;80.40;;;;;;5071480;28;19912;-58
2022/10/25 09:09:33;;;;;;;;;;;;;;;;;;5071861;28;19905;-66
2022/10/25 09:11:59;;;;;;;;;;;;;;;;;;5087109;28;19908;-69
2022/10/25 09:14:25;;;;;;;;;;;;;;;;;;5086137;28;19927;-69
2022/10/25 09:16:52;;;;;;;;;;;21.60;79.60;;;;;;5070769;28;20278;-69
2022/10/25 09:19:31;;;;;;;;;;;22.00;77.10;;;;;;5071738;28;19912;-68
2022/10/25 09:21:59;;;;;;;;;;;21.90;77.80;;;;;;5072223;28;19915;-70
2022/10/25 09:24:32;;;;;;;;;;;21.90;77.00;;;;;;5071720;28;19931;-69
2022/10/25 09:27:14;;;;;;;;;;;21.90;78.30;;;;;;5071577;28;19912;-69
2022/10/25 09:29:39;;;;;;;;;;;21.90;77.90;;;;;;5071670;28;19908;-69
2022/10/25 09:32:05;;;;;;;;;;;;;;;;;;5071721;28;19904;-69
2022/10/25 09:34:34;;;;;;;;;;;;;;;;;;5087246;28;19900;-69
2022/10/25 09:37:00;;;;;;;;;;;;;;;;;;5087225;28;19904;-69
2022/10/25 09:39:26;;;;;;;;;;;;;;;;;;5071525;28;20082;-68
2022/10/25 09:41:52;;;;;;;;;;;;;;;;;;5087194;28;19911;-69
2022/10/25 09:44:18;;;;;;;;;;;;;;;;;;5087211;28;19905;-69
2022/10/25 09:46:46;;;;;;;;;;;21.90;77.90;;;;;;5071577;28;19911;-69
2022/10/25 09:49:23;;;;;;;;;;;22.00;77.80;;;;;;5071489;28;19908;-69
2022/10/25 09:51:49;;;;;;;;;;;22.00;76.70;;;;;;5071454;28;20331;-69
2022/10/25 09:54:18;;;;;;;;;;;21.90;77.00;;;;;;5071429;28;20294;-69
2022/10/25 09:56:43;;;;;;;;;;;22.00;76.80;;;;;;5071429;28;19950;-70
2022/10/25 09:59:12;;;;;;;;;;;22.00;77.30;;;;;;5090255;28;19971;-69
2022/10/25 10:01:38;;;;;;;;;;;22.00;76.10;;;;;;5075212;28;19904;-69
2022/10/25 10:04:15;;;;;;;;;;;22.00;75.60;;;;;;5074930;28;19911;-69
2022/10/25 10:06:40;;;;;;;;;;;22.00;76.70;;;;;;5074822;28;19981;-68
2022/10/25 10:09:08;;;;;;;;;;;22.00;76.70;;;;;;5074874;28;20376;-69
2022/10/25 10:11:34;;;;;;;;;;;22.10;76.30;;;;;;5075217;28;20292;-69
2022/10/25 10:14:23;;;;;;;;;;;22.10;76.40;;;;;;5074764;28;20341;-69
2022/10/25 10:16:50;;;;;;;;;;;22.20;76.10;;;;;;5067038;28;20380;-69
2022/10/25 10:19:18;;;;;;;;;;;22.30;73.80;;;;;;5072961;28;19909;-70
2022/10/25 10:21:48;;;;;;;;;;;22.30;75.90;;;;;;5074580;28;19931;-68
2022/10/25 10:24:16;;;;;;;;;;;22.40;75.90;;;;;;5072898;28;20031;-61
2022/10/25 10:26:44;;;;;;;;;;;22.50;74.90;;;;;;5074855;28;19908;-61
2022/10/25 10:29:15;;;;;;;;;;;22.60;74.30;;;;;;5076708;28;20373;-61
2022/10/25 10:31:45;;;;;;;;;;;22.70;73.30;;;;;;5070199;28;20003;-62
2022/10/25 10:34:26;;;;;;;;;;;22.80;72.70;;;;;;5082431;28;20364;-61
2022/10/25 10:36:52;;;;;;;;;;;;;;;;;;5076015;28;19904;-61
2022/10/25 10:39:17;;;;;;;;;;;;;;;;;;5089985;28;19911;-61
2022/10/25 10:41:43;;;;;;;;;;;;;;;;;;5088585;28;19908;-61
2022/10/25 10:44:09;;;;;;;;;;;;;;;;;;5072471;28;19916;-61
2022/10/25 10:46:35;;;;;;;;;;;;;;;;;;5074254;28;19904;-61
2022/10/25 10:49:01;;;;;;;;;;;;;;;;;;5074029;28;19915;-61
2022/10/25 10:51:27;;;;;;;;;;;;;;;;;;5089908;28;19908;-61
2022/10/25 10:53:53;;;;;;;;;;;;;;;;;;5073885;28;19948;-61
2022/10/25 10:56:19;;;;;;;;;;;;;;;;;;5072065;28;20430;-61
2022/10/25 10:58:45;;;;;;;;;;;;;;;;;;5073441;28;19909;-61
2022/10/25 11:01:11;;;;;;;;;;;;;;;;;;5073250;28;19915;-61
2022/10/25 11:03:38;;;;;;;;;;;;;;;;;;5073352;28;19916;-61
2022/10/25 11:06:04;;;;;;;;;;;;;;;;;;5072895;28;19908;-61
2022/10/25 11:08:30;;;;;;;;;;;;;;;;;;5073502;28;19928;-61
2022/10/25 11:10:56;;;;;;;;;;;;;;;;;;5070028;28;19909;-63
2022/10/25 11:13:24;;;;;;;;;;;;;;;;;;5071688;28;19923;-63
2022/10/25 11:15:50;;;;;;;;;;;;;;;;;;5087786;28;19958;-62
2022/10/25 11:18:16;;;;;;;;;;;;;;;;;;5087486;28;19904;-61
2022/10/25 11:20:42;;;;;;;;;;;;;;;;;;5081034;28;19931;-61
2022/10/25 11:23:08;;;;;;;;;;;;;;;;;;5072841;28;19908;-61
2022/10/25 11:25:34;;;;;;;;;;;;;;;;;;5073208;28;19908;-61
2022/10/25 11:28:00;;;;;;;;;;;;;;;;;;5073273;28;19918;-64
2022/10/25 11:30:25;;;;;;;;;;;;;;;;;;5073080;28;19954;-70
2022/10/25 11:32:51;;;;;;;;;;;;;;;;;;5073137;28;19958;-69
2022/10/25 11:35:17;;;;;;;;;;;;;;;;;;5070325;28;19912;-69
2022/10/25 11:37:43;;;;;;;;;;;;;;;;;;5073164;28;20280;-70
2022/10/25 11:40:09;;;;;;;;;;;;;;;;;;5072860;28;19908;-70
2022/10/25 11:42:35;;;;;;;;;;;;;;;;;;5072942;28;19913;-70
2022/10/25 11:45:01;;;;;;;;;;;;;;;;;;5072370;28;19923;-71
2022/10/25 11:47:27;;;;;;;;;;;;;;;;;;5072631;28;20350;-69
2022/10/25 11:49:53;;;;;;;;;;;;;;;;;;5072676;28;19916;-69
2022/10/25 11:52:20;;;;;;;;;;;;;;;;;;5071096;28;19912;-69
2022/10/25 11:54:46;;;;;;;;;;;;;;;;;;5072798;28;19910;-69
2022/10/25 11:57:12;;;;;;;;;;;;;;;;;;5088325;28;19908;-69
2022/10/25 11:59:38;;;;;;;;;;;;;;;;;;5088447;28;19987;-70
2022/10/25 12:02:04;;;;;;;;;;;;;;;;;;5072820;28;19958;-70
2022/10/25 12:04:30;;;;;;;;;;;;;;;;;;5072548;28;19908;-69
2022/10/25 12:06:56;;;;;;;;;;;;;;;;;;5072594;28;20261;-70
2022/10/25 12:09:22;;;;;;;;;;;;;;;;;;5072377;28;20361;-71
2022/10/25 12:11:51;;;;;;;;;;;22.80;72.80;;;;;;5072662;28;19904;-69
2022/10/25 12:14:22;;;;;;;;;;;25.40;62.90;;;;;;5090916;22;19919;-70
2022/10/25 12:16:48;;;;;;;;;;;26.70;60.50;;;;;;5040311;28;19909;-69
2022/10/25 12:19:21;;;;;;;;;;;27.30;57.70;;;;;;5020215;28;19909;-69
2022/10/25 12:22:10;;;;;;;;;;;27.70;57.90;;;;;;5051700;28;19904;-69
2022/10/25 12:24:40;;;;;;;;;;;27.90;56.80;;;;;;5046371;28;19915;-69
2022/10/25 12:27:07;;;;;;;;;;;27.90;56.60;;;;;;5049887;28;19916;-69
2022/10/25 12:29:35;;;;;;;;;;;27.70;56.50;;;;;;5051040;28;19905;-69
2022/10/25 12:32:02;;;;;;;;;;;27.20;54.80;;;;;;5050742;28;19913;-70
2022/10/25 12:34:39;;;;;;;;;;;26.60;57.60;;;;;;5046255;28;19916;-69
2022/10/25 12:37:10;;;;;;;;;;;26.30;59.40;;;;;;5050367;28;20387;-70
2022/10/25 12:39:39;;;;;;;;;;;26.20;59.30;;;;;;5052227;28;19995;-69
2022/10/25 12:42:10;;;;;;;;;;;26.30;59.20;;;;;;5050396;28;20308;-70
2022/10/25 12:44:38;;;;;;;;;;;27.00;57.20;;;;;;5052123;28;20313;-69
2022/10/25 12:47:04;;;;;;;;;;;27.70;56.60;;;;;;5034099;28;20262;-70
2022/10/25 12:49:38;;;;;;;;;;;28.40;55.80;;;;;;5035657;28;19915;-70
2022/10/25 12:52:16;;;;;;;;;;;28.80;55.00;;;;;;5049421;28;19909;-70
2022/10/25 12:54:44;;;;;;;;;;;29.00;54.30;;;;;;5032121;28;20357;-69
2022/10/25 12:57:29;;;;;;;;;;;28.50;52.30;;;;;;5051661;28;20372;-70
2022/10/25 13:00:07;;;;;;;;;;;28.70;54.10;;;;;;5051722;28;19909;-70
2022/10/25 13:02:45;;;;;;;;;;;29.50;51.00;;;;;;5045443;28;19909;-69
2022/10/25 13:05:20;;;;;;;;;;;29.20;52.80;;;;;;5037625;28;19913;-70
2022/10/25 13:07:47;;;;;;;;;;;28.90;52.60;;;;;;5031438;28;20006;-60
2022/10/25 13:10:19;;;;;;;;;;;28.30;51.60;;;;;;5034987;28;20050;-58
2022/10/25 13:13:17;;;;;;;;;;;27.80;54.50;;;;;;5032749;28;19954;-57
2022/10/25 13:15:54;;;;;;;;;;;27.30;56.40;;;;;;4997564;28;19920;-58
2022/10/25 13:18:42;;;;;;;;;;;27.10;57.30;;;;;;5030041;28;19944;-58
2022/10/25 13:21:10;;;;;;;;;;;27.10;57.40;;;;;;5024783;28;19905;-57
2022/10/25 13:23:41;;;;;;;;;;;27.40;56.50;;;;;;5032181;28;19916;-55
2022/10/25 13:26:08;;;;;;;;;;;27.90;55.40;;;;;;5036538;28;19905;-55
2022/10/25 13:28:43;;;;;;;;;;;28.20;54.80;;;;;;5043680;28;19913;-58
2022/10/25 13:31:28;;;;;;;;;;;28.20;54.10;;;;;;5051413;28;20347;-59
2022/10/25 13:34:09;;;;;;;;;;;28.00;53.10;;;;;;5040709;28;19909;-57
2022/10/25 13:36:54;;;;;;;;;;;27.50;53.90;;;;;;5021956;28;19905;-59
2022/10/25 13:39:23;;;;;;;;;;;27.80;55.40;;;;;;5035154;28;19909;-53
2022/10/25 13:41:49;;;;;;;;;;;28.20;52.40;;;;;;5032426;28;19921;-57
2022/10/25 13:44:19;;;;;;;;;;;28.40;54.10;;;;;;5032159;28;20131;-58
2022/10/25 13:46:45;;;;;;;;;;;28.40;54.00;;;;;;5030863;28;19909;-58
2022/10/25 13:49:34;;;;;;;;;;;28.40;51.10;;;;;;5034103;28;19955;-59
2022/10/25 13:52:03;;;;;;;;;;;28.50;52.70;;;;;;5031043;28;19963;-63
2022/10/25 13:54:49;;;;;;;;;;;28.50;51.80;;;;;;5055150;28;20472;-65
2022/10/25 13:57:34;;;;;;;;;;;28.30;52.50;;;;;;5054312;28;19962;-65
2022/10/25 14:00:00;;;;;;;;;;;28.20;53.30;;;;;;5034654;28;19959;-64
2022/10/25 14:02:26;;;;;;;;;;;28.20;53.30;;;;;;5033021;28;19988;-64
2022/10/25 14:04:52;;;;;;;;;;;28.20;54.10;;;;;;5034911;28;19905;-64
2022/10/25 14:07:36;;;;;;;;;;;28.30;54.30;;;;;;5047739;28;20359;-63
2022/10/25 14:10:02;;;;;;;;;;;28.40;53.80;;;;;;5053098;28;19927;-66
2022/10/25 14:12:29;;;;;;;;;;;28.30;53.80;;;;;;5038107;28;19913;-64
2022/10/25 14:15:03;;;;;;;;;;;28.20;53.60;;;;;;5034231;28;20408;-63
2022/10/25 14:17:38;;;;;;;;;;;28.30;53.80;;;;;;5033265;28;20340;-63
2022/10/25 14:20:07;;;;;;;;;;;28.00;54.10;;;;;;5032288;28;19936;-64
2022/10/25 14:22:38;;;;;;;;;;;27.70;54.40;;;;;;5034296;28;19905;-64
2022/10/25 14:25:17;;;;;;;;;;;27.20;55.10;;;;;;5032115;28;19980;-64
2022/10/25 14:27:43;;;;;;;;;;;26.90;56.70;;;;;;5032176;28;19944;-63
2022/10/25 14:30:15;;;;;;;;;;;26.90;57.10;;;;;;5032612;28;20344;-64
2022/10/25 14:32:48;;;;;;;;;;;27.00;56.80;;;;;;5032318;28;19967;-64
2022/10/25 14:35:13;;;;;;;;;;;26.80;56.90;;;;;;5033620;28;19992;-63
2022/10/25 14:37:40;;;;;;;;;;;26.70;57.80;;;;;;5034221;28;20433;-63
2022/10/25 14:40:14;;;;;;;;;;;26.70;57.80;;;;;;5032961;28;19912;-63
2022/10/25 14:42:40;;;;;;;;;;;26.70;57.40;;;;;;5034615;28;19905;-65
2022/10/25 14:45:14;;;;;;;;;;;26.70;57.60;;;;;;5031402;28;19916;-69
2022/10/25 14:47:41;;;;;;;;;;;26.80;56.90;;;;;;5033845;28;19920;-63
2022/10/25 14:50:11;;;;;;;;;;;26.80;57.40;;;;;;5033649;28;20003;-63
2022/10/25 14:52:36;;;;;;;;;;;26.70;57.50;;;;;;5034095;28;19937;-63
2022/10/25 14:55:04;;;;;;;;;;;26.70;57.80;;;;;;5034109;28;20558;-64
2022/10/25 14:57:30;;;;;;;;;;;26.60;58.40;;;;;;5032957;28;19909;-64